Time;durP1;ratioP1;P1;durP2;ratioP2;P2;SDS_P1;SDS_P2;PMS_P1;PMS_P2;Temp;Humidity;BMP_temperature;BMP_pressure;BME280_temperature;BME280_humidity;BME280_pressure;Samples;Min_cycle;Max_cycle;Signal;HPM_P1;HPM_P2
2022/10/12 00:00:53;;;;;;;12.05;3.85;;;11.60;99.90;;;10.68;100.00;101926.75;5073603;23;20006;-80
2022/10/12 00:02:54;;;;;;;6.20;3.60;;;11.50;99.90;;;10.60;100.00;101916.00;5098068;23;20469;-80
2022/10/12 00:04:55;;;;;;;10.38;4.13;;;11.40;99.90;;;10.54;100.00;101922.63;5073687;23;20013;-80
2022/10/12 00:06:55;;;;;;;9.07;3.72;;;11.40;99.90;;;10.49;100.00;101916.88;5075432;23;20450;-80
2022/10/12 00:08:56;;;;;;;10.45;4.38;;;11.30;99.90;;;10.45;100.00;101915.47;5073406;23;20010;-80
2022/10/12 00:10:57;;;;;;;6.15;3.20;;;11.20;99.90;;;10.38;100.00;101909.00;5073704;23;20002;-80
2022/10/12 00:12:59;;;;;;;7.18;3.35;;;11.20;99.90;;;10.37;100.00;101904.69;5075304;23;20006;-80
2022/10/12 00:15:00;;;;;;;8.60;4.10;;;11.10;99.90;;;10.31;100.00;101907.84;5073819;23;20017;-80
2022/10/12 00:17:01;;;;;;;8.50;4.07;;;11.10;99.90;;;10.33;100.00;101914.69;5073704;23;20343;-80
2022/10/12 00:19:02;;;;;;;7.07;4.20;;;11.10;99.90;;;10.26;100.00;101907.38;5073428;23;20018;-80
2022/10/12 00:21:10;;;;;;;12.10;4.18;;;11.00;99.90;;;10.24;100.00;101910.16;5098080;23;20056;-80
2022/10/12 00:23:11;;;;;;;7.32;3.85;;;11.00;99.90;;;10.24;100.00;101907.53;5073101;23;20014;-79
2022/10/12 00:25:12;;;;;;;10.25;4.70;;;11.00;99.90;;;10.22;100.00;101908.59;5073482;23;20002;-79
2022/10/12 00:27:13;;;;;;;6.45;3.60;;;10.90;99.90;;;10.18;100.00;101904.53;5074977;23;20009;-80
2022/10/12 00:29:13;;;;;;;9.57;3.80;;;10.90;99.90;;;10.17;100.00;101913.41;5075219;23;20005;-80
2022/10/12 00:31:19;;;;;;;8.32;3.83;;;10.90;99.90;;;10.11;100.00;101903.31;5073608;23;20466;-80
2022/10/12 00:33:20;;;;;;;9.00;5.03;;;10.80;99.90;;;10.10;100.00;101913.03;5073615;23;20088;-80
2022/10/12 00:35:21;;;;;;;9.95;4.20;;;10.80;99.90;;;10.08;100.00;101906.22;5073365;23;20033;-80
2022/10/12 00:37:22;;;;;;;9.20;4.47;;;10.80;99.90;;;10.03;100.00;101906.59;5078251;23;20017;-80
2022/10/12 00:39:23;;;;;;;6.28;3.38;;;10.70;99.90;;;9.98;100.00;101908.75;5099390;23;20032;-80
2022/10/12 00:41:29;;;;;;;7.50;3.35;;;10.70;99.90;;;9.96;100.00;101908.88;5073438;23;20009;-80
2022/10/12 00:43:38;;;;;;;6.50;3.63;;;10.70;99.90;;;9.91;100.00;101910.22;5073541;23;20080;-80
2022/10/12 00:45:38;;;;;;;11.50;3.75;;;10.70;99.90;;;9.88;100.00;101911.31;5074018;23;20002;-80
2022/10/12 00:48:03;;;;;;;7.15;3.75;;;10.60;99.90;;;9.81;100.00;101904.84;5073399;23;20305;-80
2022/10/12 00:50:29;;;;;;;8.25;3.95;;;10.60;99.90;;;9.78;100.00;101907.72;5098693;23;20040;-80
2022/10/12 00:53:09;;;;;;;8.48;3.90;;;10.50;99.90;;;9.76;100.00;101901.75;5049352;23;20006;-80
2022/10/12 00:55:15;;;;;;;8.65;3.90;;;10.50;99.90;;;9.71;100.00;101901.25;5073011;23;20061;-79
2022/10/12 00:57:18;;;;;;;9.65;4.35;;;10.50;99.90;;;9.65;100.00;101906.16;5072989;23;20009;-80
2022/10/12 00:59:26;;;;;;;7.45;3.97;;;10.40;99.90;;;9.64;100.00;101904.50;5073722;23;20009;-80
2022/10/12 01:01:28;;;;;;;11.45;5.72;;;10.30;99.90;;;9.61;100.00;101900.34;5073874;23;20005;-80
2022/10/12 01:03:30;;;;;;;10.02;4.70;;;10.30;99.90;;;9.58;100.00;101903.19;5073164;23;20013;-80
2022/10/12 01:05:31;;;;;;;9.68;4.50;;;10.30;99.90;;;9.55;100.00;101903.44;5073290;23;20002;-80
2022/10/12 01:07:32;;;;;;;10.23;5.07;;;10.30;99.90;;;9.54;100.00;101899.13;5098849;23;20433;-80
2022/10/12 01:09:33;;;;;;;9.23;4.88;;;10.20;99.90;;;9.48;100.00;101899.59;5099296;23;20089;-80
2022/10/12 01:11:34;;;;;;;6.03;4.25;;;10.20;99.90;;;9.42;100.00;101894.81;5073330;23;20038;-80
2022/10/12 01:13:35;;;;;;;7.00;4.75;;;10.20;99.90;;;9.36;100.00;101884.78;5073248;23;20065;-80
2022/10/12 01:15:47;;;;;;;7.63;4.45;;;10.20;99.90;;;9.36;100.00;101896.16;5099007;23;20009;-80
2022/10/12 01:17:59;;;;;;;7.43;3.97;;;10.20;99.90;;;9.32;100.00;101901.75;5074308;23;20016;-80
2022/10/12 01:20:55;;;;;;;12.50;4.95;;;10.10;99.90;;;9.30;100.00;101899.25;5099240;23;20017;-79
2022/10/12 01:23:27;;;;;;;7.85;4.38;;;10.10;99.90;;;9.25;100.00;101895.31;5098864;23;20040;-80
2022/10/12 01:26:04;;;;;;;9.13;4.13;;;10.10;99.90;;;9.22;100.00;101899.03;5098897;23;20005;-80
2022/10/12 01:28:45;;;;;;;15.05;4.68;;;10.00;99.90;;;9.20;100.00;101900.09;5099396;23;20009;-80
2022/10/12 01:30:54;;;;;;;6.25;4.05;;;10.00;99.90;;;9.18;100.00;101891.47;5075890;23;20006;-80
2022/10/12 01:33:42;;;;;;;14.98;4.78;;;10.00;99.90;;;9.13;100.00;101894.47;5073638;23;20010;-80
2022/10/12 01:36:08;;;;;;;12.40;4.68;;;9.90;99.90;;;9.13;100.00;101896.25;5075079;23;20022;-79
2022/10/12 01:38:33;;;;;;;14.07;5.18;;;9.90;99.90;;;9.17;100.00;101900.34;5074053;23;20478;-80
2022/10/12 01:40:44;;;;;;;11.98;4.38;;;9.90;99.90;;;9.16;100.00;101898.66;5099046;23;20009;-79
2022/10/12 01:42:46;;;;;;;12.05;4.38;;;9.90;99.90;;;9.10;100.00;101894.72;5073663;23;20006;-80
2022/10/12 01:44:47;;;;;;;6.93;4.43;;;9.90;99.90;;;9.12;100.00;101903.31;5072358;23;20018;-80
2022/10/12 01:46:49;;;;;;;5.63;3.80;;;9.90;99.90;;;9.09;100.00;101894.81;5098516;23;20001;-80
2022/10/12 01:48:57;;;;;;;8.18;4.55;;;9.90;99.90;;;9.06;100.00;101887.16;5073031;23;20009;-80
2022/10/12 01:51:01;;;;;;;9.85;4.80;;;9.90;99.90;;;9.04;100.00;101899.59;5049103;23;20010;-80
2022/10/12 01:53:30;;;;;;;11.38;5.28;;;9.80;99.90;;;9.04;100.00;101891.69;5072762;23;20012;-80
2022/10/12 01:55:59;;;;;;;13.50;4.78;;;9.80;99.90;;;9.01;100.00;101890.16;5099004;23;20008;-80
2022/10/12 01:58:22;;;;;;;8.60;4.80;;;9.80;99.90;;;8.98;100.00;101889.53;5048924;23;20006;-80
2022/10/12 02:00:23;;;;;;;8.82;4.63;;;9.80;99.90;;;8.93;100.00;101886.44;5098751;23;20076;-80
2022/10/12 02:02:30;;;;;;;6.88;4.50;;;9.70;99.90;;;8.92;100.00;101887.38;5098635;23;20006;-79
2022/10/12 02:05:15;;;;;;;7.05;4.57;;;9.70;99.90;;;8.81;100.00;101883.75;5098642;23;20005;-79
2022/10/12 02:07:31;;;;;;;7.97;4.53;;;9.70;99.90;;;8.79;100.00;101885.69;5074654;23;20034;-80
2022/10/12 02:09:34;;;;;;;8.70;3.90;;;9.60;99.90;;;8.69;100.00;101876.00;5074156;23;20002;-80
2022/10/12 02:11:39;;;;;;;7.22;4.25;;;9.60;99.90;;;8.70;100.00;101877.63;5048289;23;20111;-79
2022/10/12 02:14:09;;;;;;;9.65;4.63;;;9.50;99.90;;;8.72;100.00;101887.09;5048564;23;20085;-80
2022/10/12 02:16:17;;;;;;;6.15;4.45;;;9.50;99.90;;;8.72;100.00;101879.19;5098758;23;20033;-79
2022/10/12 02:18:20;;;;;;;9.43;4.85;;;9.50;99.90;;;8.71;100.00;101872.28;5073513;23;20009;-80
2022/10/12 02:20:24;;;;;;;9.23;5.00;;;9.50;99.90;;;8.71;100.00;101872.28;5072712;23;20006;-80
2022/10/12 02:22:33;;;;;;;10.45;5.05;;;9.50;99.90;;;8.69;100.00;101868.91;5072757;23;20005;-80
2022/10/12 02:24:38;;;;;;;9.05;5.22;;;9.50;99.90;;;8.67;100.00;101862.94;5073508;23;20013;-79
2022/10/12 02:26:43;;;;;;;11.30;5.80;;;9.50;99.90;;;8.75;100.00;101875.53;5073002;23;20455;-80
2022/10/12 02:28:46;;;;;;;10.90;5.95;;;9.50;99.90;;;8.74;100.00;101866.78;5072795;23;20005;-80
2022/10/12 02:31:04;;;;;;;9.75;5.10;;;9.50;99.90;;;8.75;100.00;101871.06;5072832;23;20037;-80
2022/10/12 02:33:21;;;;;;;8.93;4.80;;;9.50;99.90;;;8.76;100.00;101877.19;5098532;23;20001;-79
2022/10/12 02:35:54;;;;;;;7.03;4.20;;;9.50;99.90;;;8.69;100.00;101876.00;5073960;23;20013;-80
2022/10/12 02:38:06;;;;;;;8.85;5.05;;;9.50;99.90;;;8.62;100.00;101864.25;5072469;23;20037;-79
2022/10/12 02:40:36;;;;;;;7.65;5.05;;;9.50;99.90;;;8.63;100.00;101872.00;5072705;23;20005;-80
2022/10/12 02:42:46;;;;;;;12.70;5.15;;;9.40;99.90;;;8.65;100.00;101866.63;5072292;23;20005;-80
2022/10/12 02:44:47;;;;;;;8.05;4.75;;;9.40;99.90;;;8.64;100.00;101864.94;5072518;23;20443;-80
2022/10/12 02:46:52;;;;;;;10.30;4.82;;;9.50;99.90;;;8.66;100.00;101863.06;5072540;23;20085;-80
2022/10/12 02:48:55;;;;;;;9.27;5.38;;;9.50;99.90;;;8.67;100.00;101862.09;5072591;23;20002;-80
2022/10/12 02:50:57;;;;;;;10.60;5.63;;;9.50;99.90;;;8.69;100.00;101868.91;5072576;23;20053;-80
2022/10/12 02:52:58;;;;;;;7.45;4.10;;;9.50;99.90;;;8.65;100.00;101861.38;5072102;23;20033;-80
2022/10/12 02:55:00;;;;;;;9.18;4.68;;;9.50;99.90;;;8.67;100.00;101862.09;5048174;23;20015;-80
2022/10/12 02:57:00;;;;;;;11.30;5.15;;;9.50;99.90;;;8.61;100.00;101860.78;5073683;23;20044;-80
2022/10/12 02:59:01;;;;;;;8.18;4.43;;;9.40;99.90;;;8.59;100.00;101853.94;5072379;23;20006;-80
2022/10/12 03:01:03;;;;;;;12.80;5.75;;;9.40;99.90;;;8.60;100.00;101860.91;5096882;23;20017;-80
2022/10/12 03:03:04;;;;;;;8.30;5.55;;;9.40;99.90;;;8.67;100.00;101867.34;5048114;23;20010;-80
2022/10/12 03:05:05;;;;;;;12.52;5.88;;;9.40;99.90;;;8.67;100.00;101859.47;5073837;23;20327;-79
2022/10/12 03:07:06;;;;;;;6.30;4.50;;;9.50;99.90;;;8.68;100.00;101859.38;5072521;23;20006;-80
2022/10/12 03:09:08;;;;;;;8.32;4.75;;;9.50;99.90;;;8.67;100.00;101859.47;5047930;23;20466;-80
2022/10/12 03:11:11;;;;;;;8.38;4.95;;;9.50;99.90;;;8.69;100.00;101863.66;5073845;23;20006;-80
2022/10/12 03:13:12;;;;;;;9.25;5.20;;;9.50;99.90;;;8.65;100.00;101856.97;5072468;23;20002;-80
2022/10/12 03:15:13;;;;;;;10.15;4.93;;;9.50;99.90;;;8.68;100.00;101859.38;5048131;23;20010;-80
2022/10/12 03:17:14;;;;;;;11.70;5.50;;;9.50;99.90;;;8.70;100.00;101849.56;5073864;23;20571;-80
2022/10/12 03:19:15;;;;;;;9.68;5.68;;;9.50;99.90;;;8.70;100.00;101849.56;5073832;23;20431;-79
2022/10/12 03:21:16;;;;;;;7.43;4.90;;;9.50;99.90;;;8.67;100.00;101835.78;5074144;23;20013;-80
2022/10/12 03:23:17;;;;;;;8.52;5.05;;;9.50;99.90;;;8.67;100.00;101844.53;5073543;23;20012;-80
2022/10/12 03:25:18;;;;;;;8.10;4.55;;;9.50;99.90;;;8.60;100.00;101829.34;5073821;23;20434;-80
2022/10/12 03:27:19;;;;;;;13.80;5.07;;;9.50;99.90;;;8.63;100.00;101844.88;5072473;23;20006;-80
2022/10/12 03:29:19;;;;;;;11.55;5.00;;;9.40;99.90;;;8.66;100.00;101837.56;5072655;23;20001;-80
2022/10/12 03:31:21;;;;;;;8.45;4.55;;;9.40;99.90;;;8.63;100.00;101831.75;5072382;23;20037;-80
2022/10/12 03:33:22;;;;;;;9.95;4.93;;;9.50;99.90;;;8.57;100.00;101827.75;5073807;23;20085;-80
2022/10/12 03:35:23;;;;;;;9.13;4.38;;;9.40;99.90;;;8.59;100.00;101836.38;5074010;23;20419;-80
2022/10/12 03:37:23;;;;;;;7.30;4.05;;;9.40;99.90;;;8.58;100.00;101832.06;5077247;23;20999;-79
2022/10/12 03:39:24;;;;;;;11.70;5.53;;;9.30;99.90;;;8.51;100.00;101822.16;5072339;23;20441;-80
2022/10/12 03:41:25;;;;;;;10.07;4.57;;;9.30;99.90;;;8.54;100.00;101833.25;5072383;23;20081;-79
2022/10/12 03:43:26;;;;;;;9.82;5.07;;;9.30;99.90;;;8.57;100.00;101835.66;5098284;23;20002;-80
2022/10/12 03:45:27;;;;;;;9.77;4.82;;;9.30;99.90;;;8.50;100.00;101842.34;5098178;23;20005;-79
2022/10/12 03:47:28;;;;;;;9.38;5.43;;;9.30;99.90;;;8.45;100.00;101839.22;5072303;23;20006;-80
2022/10/12 03:49:29;;;;;;;8.52;5.10;;;9.30;99.90;;;8.43;100.00;101835.00;5072293;23;20002;-79
2022/10/12 03:51:30;;;;;;;9.13;4.50;;;9.20;99.90;;;8.40;100.00;101840.50;5072592;23;20077;-79
2022/10/12 03:53:31;;;;;;;9.18;5.55;;;9.20;99.90;;;8.35;100.00;101835.59;5072286;23;20009;-79
2022/10/12 03:55:33;;;;;;;8.52;5.13;;;9.10;99.90;;;8.29;100.00;101834.28;5099749;23;20032;-79
2022/10/12 03:57:33;;;;;;;8.45;4.80;;;9.10;99.90;;;8.28;100.00;101842.25;5074105;23;20006;-79
2022/10/12 03:59:34;;;;;;;8.20;5.05;;;9.10;99.90;;;8.21;100.00;101836.59;5073492;23;20045;-79
2022/10/12 04:01:35;;;;;;;11.38;5.53;;;9.00;99.90;;;8.21;100.00;101848.91;5049552;23;20014;-79
2022/10/12 04:03:36;;;;;;;10.98;5.43;;;9.00;99.90;;;8.18;100.00;101841.25;5099470;23;20009;-79
2022/10/12 04:05:38;;;;;;;8.63;4.70;;;9.00;99.90;;;8.11;100.00;101845.28;5099675;23;20052;-79
2022/10/12 04:07:39;;;;;;;8.35;4.78;;;9.00;99.90;;;8.11;100.00;101847.91;5049026;23;20013;-80
2022/10/12 04:09:40;;;;;;;8.73;6.00;;;8.90;99.90;;;8.07;100.00;101849.91;5073316;23;20486;-79
2022/10/12 04:11:41;;;;;;;8.43;5.97;;;8.80;99.90;;;8.07;100.00;101846.44;5097998;23;20001;-80
2022/10/12 04:13:43;;;;;;;14.07;6.32;;;8.90;99.90;;;8.06;100.00;101842.16;5049324;23;20018;-80
2022/10/12 04:15:44;;;;;;;8.23;5.47;;;8.80;99.90;;;8.05;100.00;101850.97;5073627;23;20065;-79
2022/10/12 04:17:45;;;;;;;10.45;6.07;;;8.80;99.90;;;8.04;100.00;101850.13;5099464;23;20156;-80
2022/10/12 04:19:46;;;;;;;8.85;5.22;;;8.80;99.90;;;8.00;100.00;101845.25;5099548;23;20342;-79
2022/10/12 04:21:47;;;;;;;10.82;5.60;;;8.80;99.90;;;8.04;100.00;101865.06;5073623;23;20034;-79
2022/10/12 04:23:48;;;;;;;13.20;6.03;;;8.80;99.90;;;7.99;100.00;101854.06;5099063;23;20013;-79
2022/10/12 04:25:49;;;;;;;10.40;4.80;;;8.80;99.90;;;8.03;100.00;101861.63;5099361;23;20001;-80
2022/10/12 04:27:50;;;;;;;10.63;6.03;;;8.80;99.90;;;8.03;100.00;101868.66;5099422;23;20334;-80
2022/10/12 04:29:51;;;;;;;11.02;5.97;;;8.80;99.90;;;8.01;100.00;101873.16;5097840;23;20005;-79
2022/10/12 04:31:52;;;;;;;11.48;7.20;;;8.80;99.90;;;8.02;100.00;101877.47;5049993;23;20014;-79
2022/10/12 04:33:55;;;;;;;12.73;6.28;;;8.80;99.90;;;8.00;100.00;101868.88;5073539;23;20060;-79
2022/10/12 04:35:56;;;;;;;13.20;6.75;;;8.80;99.90;;;7.96;100.00;101872.69;5099478;23;20010;-80
2022/10/12 04:37:57;;;;;;;11.65;6.38;;;8.80;99.90;;;8.00;100.00;101879.41;5073005;23;20340;-79
2022/10/12 04:39:58;;;;;;;11.45;5.35;;;8.80;99.90;;;7.99;100.00;101878.56;5099286;23;20346;-80
2022/10/12 04:41:59;;;;;;;13.90;6.15;;;8.70;99.90;;;8.01;100.00;101878.41;5099299;23;20005;-79
2022/10/12 04:44:00;;;;;;;16.52;6.35;;;8.80;99.90;;;7.99;100.00;101869.81;5073556;23;20017;-79
2022/10/12 04:46:00;;;;;;;11.18;5.78;;;8.80;99.90;;;8.04;100.00;101875.56;5073462;23;20383;-80
2022/10/12 04:48:01;;;;;;;12.52;6.30;;;8.80;99.90;;;8.01;100.00;101876.63;5099247;23;20077;-80
2022/10/12 04:50:03;;;;;;;8.52;5.22;;;8.80;99.90;;;8.06;100.00;101887.69;5073432;23;20009;-79
2022/10/12 04:52:04;;;;;;;7.95;5.95;;;8.80;99.90;;;8.00;100.00;101887.28;5099705;23;20084;-79
2022/10/12 04:54:05;;;;;;;9.93;5.75;;;8.80;99.90;;;7.92;100.00;101889.59;5099066;23;20064;-79
2022/10/12 04:56:06;;;;;;;8.07;4.90;;;8.80;99.90;;;7.87;100.00;101900.47;5072952;23;20039;-79
2022/10/12 04:58:07;;;;;;;10.48;5.75;;;8.70;99.90;;;7.83;100.00;101904.25;5073365;23;20060;-80
2022/10/12 05:00:09;;;;;;;11.25;6.38;;;8.70;99.90;;;7.82;100.00;101896.47;5072923;23;20062;-79
2022/10/12 05:02:10;;;;;;;13.07;6.90;;;8.60;99.90;;;7.86;100.00;101897.91;5073243;23;20141;-80
2022/10/12 05:04:11;;;;;;;16.60;7.40;;;8.60;99.90;;;7.95;100.00;101897.25;5073074;23;20014;-79
2022/10/12 05:06:12;;;;;;;14.43;6.97;;;8.70;99.90;;;7.93;100.00;101893.91;5072948;23;20010;-80
2022/10/12 05:08:12;;;;;;;12.02;7.70;;;8.70;99.90;;;7.92;100.00;101897.47;5098784;23;20434;-79
2022/10/12 05:10:13;;;;;;;11.32;6.60;;;8.70;99.90;;;7.90;100.00;101904.66;5099128;23;20001;-79
2022/10/12 05:12:15;;;;;;;14.55;7.40;;;8.70;99.90;;;7.90;100.00;101902.00;5073206;23;20358;-80
2022/10/12 05:14:16;;;;;;;12.45;7.68;;;8.70;99.90;;;7.97;100.00;101898.00;5073075;23;20010;-79
2022/10/12 05:16:17;;;;;;;12.80;7.88;;;8.70;99.90;;;7.93;100.00;101886.03;5099082;23;20474;-80
2022/10/12 05:18:18;;;;;;;13.63;8.30;;;8.70;99.90;;;7.93;100.00;101886.03;5098987;23;20005;-80
2022/10/12 05:20:18;;;;;;;14.70;9.13;;;8.70;99.90;;;7.98;100.00;101883.91;5073080;23;20463;-80
2022/10/12 05:22:19;;;;;;;14.98;9.48;;;8.70;99.90;;;7.95;100.00;101882.34;5072501;23;20053;-80
2022/10/12 05:24:20;;;;;;;10.25;7.20;;;8.70;99.90;;;7.98;100.00;101886.53;5072657;23;20010;-80
2022/10/12 05:26:21;;;;;;;18.52;9.10;;;8.70;99.90;;;8.01;100.00;101884.53;5073067;23;20006;-79
2022/10/12 05:28:22;;;;;;;15.52;8.18;;;8.80;99.90;;;8.01;100.00;101891.56;5098884;23;20025;-80
2022/10/12 05:30:23;;;;;;;14.23;7.40;;;8.80;99.90;;;7.97;100.00;101900.63;5072838;23;20002;-80
2022/10/12 05:32:24;;;;;;;11.52;7.47;;;8.80;99.90;;;7.78;100.00;101886.19;5073197;23;20022;-79
2022/10/12 05:34:25;;;;;;;9.70;6.13;;;8.70;99.90;;;7.77;100.00;101897.63;5098852;23;20012;-79
2022/10/12 05:36:26;;;;;;;14.20;6.85;;;8.60;99.90;;;7.68;100.00;101895.66;5073239;23;20109;-79
2022/10/12 05:38:27;;;;;;;12.65;6.15;;;8.60;99.90;;;7.68;100.00;101902.69;5072670;23;20022;-80
2022/10/12 05:40:27;;;;;;;9.15;6.05;;;8.50;99.90;;;7.65;100.00;101906.41;5098834;23;20010;-80
2022/10/12 05:42:28;;;;;;;12.98;6.68;;;8.50;99.90;;;7.59;100.00;101901.56;5072966;23;20006;-80
2022/10/12 05:44:29;;;;;;;11.93;6.72;;;8.50;99.90;;;7.57;100.00;101892.13;5072884;23;20040;-80
2022/10/12 05:46:30;;;;;;;11.40;6.35;;;8.40;99.90;;;7.58;100.00;101906.94;5072714;23;20088;-80
2022/10/12 05:48:32;;;;;;;8.43;5.70;;;8.40;99.90;;;7.41;100.00;101879.25;5072876;23;20029;-81
2022/10/12 05:50:33;;;;;;;8.52;5.55;;;8.40;99.90;;;7.48;100.00;101898.88;5098753;23;20426;-81
2022/10/12 05:52:34;;;;;;;14.48;7.28;;;8.40;99.90;;;7.43;100.00;101890.50;5072794;23;20009;-81
2022/10/12 05:54:35;;;;;;;10.02;6.78;;;8.30;99.90;;;7.47;100.00;101898.97;5048526;23;20051;-81
2022/10/12 05:56:36;;;;;;;11.35;6.65;;;8.30;99.90;;;7.47;100.00;101897.19;5097490;23;20465;-82
2022/10/12 05:58:37;;;;;;;8.45;5.47;;;8.30;99.90;;;7.48;100.00;101895.41;5072899;23;20057;-82
2022/10/12 06:00:38;;;;;;;13.20;6.03;;;8.30;99.90;;;7.40;100.00;101885.47;5072857;23;20036;-81
2022/10/12 06:02:39;;;;;;;11.93;6.30;;;8.30;99.90;;;7.40;100.00;101885.47;5072800;23;20005;-82
2022/10/12 06:04:40;;;;;;;12.90;6.95;;;8.30;99.90;;;7.35;100.00;101877.03;5097124;23;20060;-82
2022/10/12 06:06:41;;;;;;;8.20;5.70;;;8.20;99.90;;;7.41;100.00;101892.38;5048392;23;20371;-82
2022/10/12 06:08:42;;;;;;;7.60;5.72;;;8.20;99.90;;;7.38;100.00;101882.06;5098312;23;20008;-82
2022/10/12 06:10:46;;;;;;;8.55;5.90;;;8.20;99.90;;;7.35;100.00;101873.59;5072775;23;20391;-82
2022/10/12 06:12:46;;;;;;;9.52;6.00;;;8.20;99.90;;;7.32;100.00;101882.50;5072836;23;20463;-82
2022/10/12 06:14:47;;;;;;;8.32;5.55;;;8.20;99.90;;;7.29;100.00;101882.72;5048053;23;20067;-81
2022/10/12 06:16:48;;;;;;;10.95;5.88;;;8.20;99.90;;;7.21;100.00;101880.66;5072629;23;20010;-81
2022/10/12 06:18:49;;;;;;;9.02;6.40;;;8.10;99.90;;;7.27;100.00;101883.78;5098112;23;20457;-81
2022/10/12 06:20:53;;;;;;;10.20;5.82;;;8.10;99.90;;;7.26;100.00;101890.81;5072750;23;20006;-81
2022/10/12 06:22:54;;;;;;;11.10;5.97;;;8.10;99.90;;;7.20;100.00;101891.22;5072388;23;20081;-82
2022/10/12 06:24:55;;;;;;;9.43;6.20;;;8.10;99.90;;;7.14;100.00;101894.28;5098434;23;20010;-82
2022/10/12 06:26:56;;;;;;;8.70;5.22;;;8.00;99.90;;;7.12;100.00;101901.44;5072630;23;20076;-83
2022/10/12 06:28:59;;;;;;;9.40;5.05;;;7.90;99.90;;;7.07;100.00;101898.28;5072169;23;20324;-83
2022/10/12 06:31:00;;;;;;;13.25;6.43;;;7.90;99.90;;;7.03;100.00;101902.06;5072266;23;20006;-82
2022/10/12 06:33:01;;;;;;;13.38;6.22;;;7.90;99.90;;;7.01;100.00;101896.09;5072244;23;20012;-83
2022/10/12 06:35:02;;;;;;;6.97;5.30;;;7.90;99.90;;;7.04;100.00;101909.00;5098538;23;20010;-82
2022/10/12 06:37:03;;;;;;;9.13;5.20;;;7.90;99.90;;;7.02;100.00;101897.75;5072311;23;20366;-83
2022/10/12 06:39:04;;;;;;;9.35;5.43;;;7.90;99.90;;;6.94;100.00;101886.94;5024580;23;20042;-80
2022/10/12 06:41:05;;;;;;;8.90;4.93;;;7.90;99.90;;;7.07;100.00;101903.53;5072505;23;20013;-82
2022/10/12 06:43:06;;;;;;;11.63;5.53;;;7.90;99.90;;;7.07;100.00;101906.16;5072520;23;20010;-82
2022/10/12 06:45:08;;;;;;;8.57;5.20;;;7.90;99.90;;;7.00;100.00;101910.97;5098424;23;20438;-82
2022/10/12 06:47:09;;;;;;;8.77;4.95;;;7.90;99.90;;;6.97;100.00;101918.22;5046879;23;20085;-82
2022/10/12 06:49:09;;;;;;;10.05;4.88;;;7.80;99.90;;;6.86;100.00;101905.84;5072468;23;20472;-83
2022/10/12 06:51:10;;;;;;;7.43;4.88;;;7.80;99.90;;;6.98;100.00;101922.53;5098311;23;20006;-82
2022/10/12 06:53:11;;;;;;;12.40;5.70;;;7.80;99.90;;;7.02;100.00;101923.97;5098084;23;20005;-83
2022/10/12 06:55:12;;;;;;;10.32;5.78;;;7.80;99.90;;;7.06;100.00;101914.97;5098694;23;20012;-82
2022/10/12 06:57:13;;;;;;;12.52;7.10;;;7.80;99.90;;;7.05;100.00;101906.25;5072522;23;20466;-83
2022/10/12 06:59:14;;;;;;;13.80;6.82;;;7.80;99.90;;;7.14;100.00;101917.91;5072454;23;20013;-82
2022/10/12 07:01:15;;;;;;;13.70;6.72;;;7.90;99.90;;;7.18;100.00;101917.59;5096895;23;20532;-84
2022/10/12 07:03:16;;;;;;;9.23;5.90;;;8.00;99.90;;;7.24;100.00;101922.41;5072341;23;20006;-83
2022/10/12 07:05:19;;;;;;;9.35;6.00;;;8.00;99.90;;;7.17;100.00;101925.56;5048054;23;20382;-83
2022/10/12 07:07:20;;;;;;;7.78;5.03;;;8.10;99.90;;;7.24;100.00;101943.41;5072334;23;20002;-83
2022/10/12 07:09:21;;;;;;;10.45;5.35;;;8.10;99.90;;;7.29;100.00;101935.22;5098358;23;20005;-83
2022/10/12 07:11:22;;;;;;;13.18;6.25;;;8.10;99.90;;;7.34;100.00;101932.28;5072318;23;20006;-83
2022/10/12 07:13:23;;;;;;;11.70;6.45;;;8.20;99.90;;;7.43;100.00;101929.03;5072735;23;20009;-83
2022/10/12 07:15:24;;;;;;;10.48;6.43;;;8.20;99.90;;;7.50;100.00;101923.22;5098383;23;20001;-83
2022/10/12 07:17:25;;;;;;;11.35;7.32;;;8.30;99.90;;;7.58;100.00;101926.19;5098357;23;20006;-83
2022/10/12 07:19:26;;;;;;;13.15;7.60;;;8.40;99.90;;;7.62;100.00;101919.75;5098340;23;20001;-83
2022/10/12 07:21:27;;;;;;;9.85;6.63;;;8.40;99.90;;;7.76;100.00;101924.84;5072413;23;20030;-83
2022/10/12 07:23:30;;;;;;;11.82;7.03;;;8.50;99.90;;;7.82;100.00;101921.78;5072048;23;20017;-83
2022/10/12 07:25:31;;;;;;;10.50;6.90;;;8.60;99.90;;;7.95;100.00;101942.75;5072515;23;20137;-83
2022/10/12 07:27:32;;;;;;;15.70;7.63;;;8.70;99.90;;;8.01;100.00;101928.34;5098148;23;20005;-83
2022/10/12 07:29:33;;;;;;;13.38;8.10;;;8.80;99.90;;;8.07;100.00;101927.91;5073955;23;20010;-83
2022/10/12 07:31:35;;;;;;;11.93;7.60;;;8.90;99.90;;;8.18;100.00;101935.88;5049754;23;20356;-83
2022/10/12 07:33:40;;;;;;;11.52;7.97;;;9.00;99.90;;;8.28;100.00;101931.63;5099821;23;20005;-83
2022/10/12 07:35:41;;;;;;;11.15;6.32;;;9.10;99.90;;;8.37;100.00;101930.97;5074316;23;20057;-83
2022/10/12 07:37:42;;;;;;;10.73;6.85;;;9.10;99.90;;;8.40;100.00;101936.00;5049060;23;20411;-83
2022/10/12 07:39:43;;;;;;;12.60;7.22;;;9.20;99.90;;;8.45;100.00;101939.16;5049509;23;20006;-83
2022/10/12 07:41:44;;;;;;;11.45;6.57;;;9.20;99.90;;;8.47;100.00;101936.38;5075394;23;20078;-83
2022/10/12 07:43:45;;;;;;;13.55;8.13;;;9.30;99.90;;;8.50;100.00;101936.16;5073742;23;20100;-84
2022/10/12 07:45:46;;;;;;;14.90;8.55;;;9.30;99.90;;;8.58;100.00;101934.63;5073903;23;20002;-83
2022/10/12 07:47:47;;;;;;;15.20;8.30;;;9.40;99.90;;;8.63;100.00;101931.69;5073834;23;20010;-83
2022/10/12 07:49:48;;;;;;;13.77;7.63;;;9.50;99.90;;;8.73;100.00;101933.50;5098316;23;20430;-81
2022/10/12 07:51:49;;;;;;;9.75;6.85;;;9.60;99.90;;;8.78;100.00;101933.97;5073826;23;20010;-77
2022/10/12 07:53:50;;;;;;;11.38;8.20;;;9.60;99.90;;;8.90;100.00;101934.84;5049245;23;20340;-80
2022/10/12 07:55:51;;;;;;;14.25;8.23;;;9.70;99.90;;;8.97;100.00;101943.97;5073734;23;20032;-80
2022/10/12 07:57:52;;;;;;;11.02;6.95;;;9.80;99.90;;;9.06;100.00;101947.69;5075201;23;20069;-81
2022/10/12 07:59:53;;;;;;;10.57;7.28;;;9.90;99.90;;;9.12;100.00;101947.22;5073881;23;20013;-81
2022/10/12 08:01:54;;;;;;;10.65;6.97;;;9.90;99.90;;;9.19;100.00;101951.06;5075451;23;20005;-80
2022/10/12 08:03:56;;;;;;;9.85;6.45;;;10.00;99.90;;;9.24;100.00;101949.75;5073648;23;20033;-81
2022/10/12 08:05:56;;;;;;;14.02;6.80;;;10.10;99.90;;;9.36;100.00;101959.34;5073789;23;20006;-80
2022/10/12 08:07:59;;;;;;;11.25;6.18;;;10.20;99.90;;;9.38;100.00;101946.03;5073439;23;20013;-80
2022/10/12 08:09:59;;;;;;;10.45;6.60;;;10.30;99.90;;;9.52;100.00;101960.78;5049752;23;20009;-81
2022/10/12 08:12:02;;;;;;;9.63;6.28;;;10.30;99.90;;;9.54;100.00;101957.06;5075523;23;20002;-82
2022/10/12 08:14:03;;;;;;;10.48;5.82;;;10.40;99.90;;;9.64;100.00;101962.47;5073663;23;20084;-82
2022/10/12 08:16:10;;;;;;;8.68;5.68;;;10.40;99.90;;;9.73;100.00;101970.50;5073654;23;20005;-81
2022/10/12 08:18:11;;;;;;;9.30;6.10;;;10.50;99.90;;;9.81;100.00;101970.72;5073662;23;20010;-79
2022/10/12 08:20:12;;;;;;;12.20;7.15;;;10.60;99.90;;;9.89;100.00;101973.56;5075066;23;20010;-80
2022/10/12 08:22:13;;;;;;;8.60;5.93;;;10.70;99.90;;;9.96;100.00;101973.94;5074738;23;20017;-80
2022/10/12 08:24:14;;;;;;;10.32;5.45;;;10.80;99.90;;;10.08;100.00;101977.38;5074925;23;20010;-80
2022/10/12 08:26:15;;;;;;;11.00;6.20;;;11.00;99.90;;;10.21;100.00;101989.53;5073532;23;20006;-80
2022/10/12 08:28:16;;;;;;;10.63;6.32;;;11.00;99.90;;;10.33;100.00;102000.88;5073526;23;20028;-80
2022/10/12 08:30:17;;;;;;;10.43;6.70;;;11.20;99.90;;;10.46;100.00;101996.25;5075050;23;20002;-79
2022/10/12 08:32:18;;;;;;;9.43;6.00;;;11.30;99.90;;;10.61;100.00;101997.66;5075088;23;20006;-79
2022/10/12 08:34:19;;;;;;;11.52;7.38;;;11.50;99.90;;;10.80;100.00;102000.47;5073116;23;20006;-76
2022/10/12 08:36:20;;;;;;;11.73;7.60;;;11.70;99.90;;;10.99;100.00;102000.59;5074890;23;20021;-78